sensor_id;sensor_type;location;lat;lon;timestamp;temperature;humidity
9497;DHT22;4786;51.270;4.456;2024-01-11T00:00:33;-2.60;99.90
9497;DHT22;4786;51.270;4.456;2024-01-11T00:02:59;-2.50;99.90
9497;DHT22;4786;51.270;4.456;2024-01-11T00:05:25;-2.60;99.90
9497;DHT22;4786;51.270;4.456;2024-01-11T00:07:51;-2.60;99.90
9497;DHT22;4786;51.270;4.456;2024-01-11T00:10:17;-2.60;99.90
9497;DHT22;4786;51.270;4.456;2024-01-11T00:12:43;-2.50;99.90
9497;DHT22;4786;51.270;4.456;2024-01-11T00:15:09;-2.60;99.90
9497;DHT22;4786;51.270;4.456;2024-01-11T00:17:36;-2.50;99.90
9497;DHT22;4786;51.270;4.456;2024-01-11T00:20:01;-2.60;99.90
9497;DHT22;4786;51.270;4.456;2024-01-11T00:22:28;-2.60;99.90
9497;DHT22;4786;51.270;4.456;2024-01-11T00:24:54;-2.60;99.90
9497;DHT22;4786;51.270;4.456;2024-01-11T00:27:20;-2.60;99.90
9497;DHT22;4786;51.270;4.456;2024-01-11T00:29:46;-2.60;99.90
9497;DHT22;4786;51.270;4.456;2024-01-11T00:32:12;-2.30;99.90
9497;DHT22;4786;51.270;4.456;2024-01-11T00:34:37;-2.50;99.90
9497;DHT22;4786;51.270;4.456;2024-01-11T00:37:04;-2.50;99.90
9497;DHT22;4786;51.270;4.456;2024-01-11T00:39:30;-2.60;99.90
9497;DHT22;4786;51.270;4.456;2024-01-11T00:41:56;-2.40;99.90
9497;DHT22;4786;51.270;4.456;2024-01-11T00:44:22;-2.70;99.90
9497;DHT22;4786;51.270;4.456;2024-01-11T00:46:48;-2.70;99.90
9497;DHT22;4786;51.270;4.456;2024-01-11T00:49:14;-2.70;99.90
9497;DHT22;4786;51.270;4.456;2024-01-11T00:51:40;-2.80;99.90
9497;DHT22;4786;51.270;4.456;2024-01-11T00:54:06;-2.70;99.90
9497;DHT22;4786;51.270;4.456;2024-01-11T00:56:32;-2.80;99.90
9497;DHT22;4786;51.270;4.456;2024-01-11T00:58:57;-2.70;99.90
9497;DHT22;4786;51.270;4.456;2024-01-11T01:01:23;-2.70;99.90
9497;DHT22;4786;51.270;4.456;2024-01-11T01:03:49;-2.80;99.90
9497;DHT22;4786;51.270;4.456;2024-01-11T01:06:14;-2.70;99.90
9497;DHT22;4786;51.270;4.456;2024-01-11T01:08:40;-2.70;99.90
9497;DHT22;4786;51.270;4.456;2024-01-11T01:11:05;-2.60;99.90
9497;DHT22;4786;51.270;4.456;2024-01-11T01:13:32;-2.70;99.90
9497;DHT22;4786;51.270;4.456;2024-01-11T01:15:57;-2.70;99.90
9497;DHT22;4786;51.270;4.456;2024-01-11T01:18:23;-2.70;99.90
9497;DHT22;4786;51.270;4.456;2024-01-11T01:20:50;-2.70;99.90
9497;DHT22;4786;51.270;4.456;2024-01-11T01:23:16;-2.70;99.90
9497;DHT22;4786;51.270;4.456;2024-01-11T01:25:43;-2.70;99.90
9497;DHT22;4786;51.270;4.456;2024-01-11T01:28:09;-2.70;99.90
9497;DHT22;4786;51.270;4.456;2024-01-11T01:30:35;-2.60;99.90
9497;DHT22;4786;51.270;4.456;2024-01-11T01:33:01;-2.70;99.90
9497;DHT22;4786;51.270;4.456;2024-01-11T01:35:28;-2.60;99.90
9497;DHT22;4786;51.270;4.456;2024-01-11T01:37:53;-2.70;99.90
9497;DHT22;4786;51.270;4.456;2024-01-11T01:40:19;-2.70;99.90
9497;DHT22;4786;51.270;4.456;2024-01-11T01:42:45;-2.70;99.90
9497;DHT22;4786;51.270;4.456;2024-01-11T01:45:12;-2.30;99.90
9497;DHT22;4786;51.270;4.456;2024-01-11T01:47:39;-2.40;99.90
9497;DHT22;4786;51.270;4.456;2024-01-11T01:50:07;-2.60;99.90
9497;DHT22;4786;51.270;4.456;2024-01-11T01:52:33;-2.60;99.90
9497;DHT22;4786;51.270;4.456;2024-01-11T01:55:02;-2.60;99.90
9497;DHT22;4786;51.270;4.456;2024-01-11T01:57:30;-2.60;99.90
9497;DHT22;4786;51.270;4.456;2024-01-11T01:59:59;-2.50;99.90
9497;DHT22;4786;51.270;4.456;2024-01-11T02:02:25;-2.70;99.90
9497;DHT22;4786;51.270;4.456;2024-01-11T02:04:52;-2.50;99.90
9497;DHT22;4786;51.270;4.456;2024-01-11T02:07:18;-2.70;99.90
9497;DHT22;4786;51.270;4.456;2024-01-11T02:09:46;-2.70;99.90
9497;DHT22;4786;51.270;4.456;2024-01-11T02:12:13;-2.70;99.90
9497;DHT22;4786;51.270;4.456;2024-01-11T02:14:40;-2.80;99.90
9497;DHT22;4786;51.270;4.456;2024-01-11T02:17:06;-2.80;99.90
9497;DHT22;4786;51.270;4.456;2024-01-11T02:19:32;-2.60;99.90
9497;DHT22;4786;51.270;4.456;2024-01-11T02:22:05;-2.90;99.90
9497;DHT22;4786;51.270;4.456;2024-01-11T02:24:33;-2.90;99.90
9497;DHT22;4786;51.270;4.456;2024-01-11T02:27:03;-2.90;99.90
9497;DHT22;4786;51.270;4.456;2024-01-11T02:29:30;-3.00;99.90
9497;DHT22;4786;51.270;4.456;2024-01-11T02:31:57;-3.00;99.90
9497;DHT22;4786;51.270;4.456;2024-01-11T02:34:24;-3.00;99.90
9497;DHT22;4786;51.270;4.456;2024-01-11T02:36:51;-3.00;99.90
9497;DHT22;4786;51.270;4.456;2024-01-11T02:39:19;-2.90;99.90
9497;DHT22;4786;51.270;4.456;2024-01-11T02:41:45;-3.10;99.90
9497;DHT22;4786;51.270;4.456;2024-01-11T02:44:11;-3.00;99.90
9497;DHT22;4786;51.270;4.456;2024-01-11T02:46:36;-3.10;99.90
9497;DHT22;4786;51.270;4.456;2024-01-11T02:49:02;-3.10;99.90
9497;DHT22;4786;51.270;4.456;2024-01-11T02:51:28;-3.10;99.90
9497;DHT22;4786;51.270;4.456;2024-01-11T02:53:53;-3.10;99.90
9497;DHT22;4786;51.270;4.456;2024-01-11T02:56:19;-3.00;99.90
9497;DHT22;4786;51.270;4.456;2024-01-11T02:58:45;-3.10;99.90
9497;DHT22;4786;51.270;4.456;2024-01-11T03:01:11;-3.00;99.90
9497;DHT22;4786;51.270;4.456;2024-01-11T03:03:37;-3.00;99.90
9497;DHT22;4786;51.270;4.456;2024-01-11T03:06:03;-2.80;99.90
9497;DHT22;4786;51.270;4.456;2024-01-11T03:08:29;-3.10;99.90
9497;DHT22;4786;51.270;4.456;2024-01-11T03:10:55;-3.10;99.90
9497;DHT22;4786;51.270;4.456;2024-01-11T03:13:22;-3.10;99.90
9497;DHT22;4786;51.270;4.456;2024-01-11T03:15:49;-3.10;99.90
9497;DHT22;4786;51.270;4.456;2024-01-11T03:18:14;-3.10;99.90
9497;DHT22;4786;51.270;4.456;2024-01-11T03:20:40;-3.30;99.90
9497;DHT22;4786;51.270;4.456;2024-01-11T03:23:07;-3.20;99.90
9497;DHT22;4786;51.270;4.456;2024-01-11T03:25:33;-3.30;99.90
9497;DHT22;4786;51.270;4.456;2024-01-11T03:27:58;-3.30;99.90
9497;DHT22;4786;51.270;4.456;2024-01-11T03:30:25;-3.30;99.90
9497;DHT22;4786;51.270;4.456;2024-01-11T03:32:51;-3.30;99.90
9497;DHT22;4786;51.270;4.456;2024-01-11T03:35:18;-3.40;99.90
9497;DHT22;4786;51.270;4.456;2024-01-11T03:37:44;-3.40;99.90
9497;DHT22;4786;51.270;4.456;2024-01-11T03:40:11;-3.50;99.90
9497;DHT22;4786;51.270;4.456;2024-01-11T03:42:36;-3.50;99.90
9497;DHT22;4786;51.270;4.456;2024-01-11T03:45:03;-3.50;99.90
9497;DHT22;4786;51.270;4.456;2024-01-11T03:47:30;-3.50;99.90
9497;DHT22;4786;51.270;4.456;2024-01-11T03:49:56;-3.20;99.90
9497;DHT22;4786;51.270;4.456;2024-01-11T03:52:22;-3.50;99.90
9497;DHT22;4786;51.270;4.456;2024-01-11T03:54:48;-3.50;99.90
9497;DHT22;4786;51.270;4.456;2024-01-11T03:57:15;-3.50;99.90
9497;DHT22;4786;51.270;4.456;2024-01-11T03:59:40;-3.50;99.90
9497;DHT22;4786;51.270;4.456;2024-01-11T04:02:07;-3.50;99.90
9497;DHT22;4786;51.270;4.456;2024-01-11T04:04:33;-3.50;99.90
9497;DHT22;4786;51.270;4.456;2024-01-11T04:06:59;-3.50;99.90
9497;DHT22;4786;51.270;4.456;2024-01-11T04:09:25;-3.40;99.90
9497;DHT22;4786;51.270;4.456;2024-01-11T04:11:51;-3.50;99.90
9497;DHT22;4786;51.270;4.456;2024-01-11T04:14:17;-3.50;99.90
9497;DHT22;4786;51.270;4.456;2024-01-11T04:16:44;-3.30;99.90
9497;DHT22;4786;51.270;4.456;2024-01-11T04:19:10;-3.60;99.90
9497;DHT22;4786;51.270;4.456;2024-01-11T04:21:36;-3.60;99.90
9497;DHT22;4786;51.270;4.456;2024-01-11T04:24:05;-3.50;99.90
9497;DHT22;4786;51.270;4.456;2024-01-11T04:26:34;-3.40;99.90
9497;DHT22;4786;51.270;4.456;2024-01-11T04:29:00;-3.40;99.90
9497;DHT22;4786;51.270;4.456;2024-01-11T04:31:27;-3.40;99.90
9497;DHT22;4786;51.270;4.456;2024-01-11T04:33:53;-3.40;99.90
9497;DHT22;4786;51.270;4.456;2024-01-11T04:36:19;-3.50;99.90
9497;DHT22;4786;51.270;4.456;2024-01-11T04:38:45;-3.50;99.90
9497;DHT22;4786;51.270;4.456;2024-01-11T04:41:12;-3.50;99.90
9497;DHT22;4786;51.270;4.456;2024-01-11T04:43:44;-3.50;99.90
9497;DHT22;4786;51.270;4.456;2024-01-11T04:46:17;-3.40;99.90
9497;DHT22;4786;51.270;4.456;2024-01-11T04:48:43;-3.40;99.90
9497;DHT22;4786;51.270;4.456;2024-01-11T04:51:10;-3.40;99.90
9497;DHT22;4786;51.270;4.456;2024-01-11T04:53:37;-3.40;99.90
9497;DHT22;4786;51.270;4.456;2024-01-11T04:56:03;-3.40;99.90
9497;DHT22;4786;51.270;4.456;2024-01-11T04:58:29;-3.50;99.90
9497;DHT22;4786;51.270;4.456;2024-01-11T05:00:56;-3.50;99.90
9497;DHT22;4786;51.270;4.456;2024-01-11T05:03:21;-3.50;99.90
9497;DHT22;4786;51.270;4.456;2024-01-11T05:05:47;-3.50;99.90
9497;DHT22;4786;51.270;4.456;2024-01-11T05:08:14;-3.50;99.90
9497;DHT22;4786;51.270;4.456;2024-01-11T05:10:40;-3.60;99.90
9497;DHT22;4786;51.270;4.456;2024-01-11T05:13:06;-3.60;99.90
9497;DHT22;4786;51.270;4.456;2024-01-11T05:15:32;-3.50;99.90
9497;DHT22;4786;51.270;4.456;2024-01-11T05:17:58;-3.50;99.90
9497;DHT22;4786;51.270;4.456;2024-01-11T05:20:24;-3.60;99.90
9497;DHT22;4786;51.270;4.456;2024-01-11T05:22:50;-3.60;99.90
9497;DHT22;4786;51.270;4.456;2024-01-11T05:25:16;-3.70;99.90
9497;DHT22;4786;51.270;4.456;2024-01-11T05:27:42;-3.60;99.90
9497;DHT22;4786;51.270;4.456;2024-01-11T05:30:09;-3.60;99.90
9497;DHT22;4786;51.270;4.456;2024-01-11T05:32:35;-3.60;99.90
9497;DHT22;4786;51.270;4.456;2024-01-11T05:35:01;-3.70;99.90
9497;DHT22;4786;51.270;4.456;2024-01-11T05:37:26;-3.70;99.90
9497;DHT22;4786;51.270;4.456;2024-01-11T05:39:52;-3.60;99.90
9497;DHT22;4786;51.270;4.456;2024-01-11T05:42:19;-3.60;99.90
9497;DHT22;4786;51.270;4.456;2024-01-11T05:44:45;-3.60;99.90
9497;DHT22;4786;51.270;4.456;2024-01-11T05:47:11;-3.70;99.90
9497;DHT22;4786;51.270;4.456;2024-01-11T05:49:38;-3.70;99.90
9497;DHT22;4786;51.270;4.456;2024-01-11T05:52:04;-3.70;99.90
9497;DHT22;4786;51.270;4.456;2024-01-11T05:54:30;-3.60;99.90
9497;DHT22;4786;51.270;4.456;2024-01-11T05:56:56;-3.50;99.90
9497;DHT22;4786;51.270;4.456;2024-01-11T05:59:23;-3.60;99.90
9497;DHT22;4786;51.270;4.456;2024-01-11T06:01:49;-3.60;99.90
9497;DHT22;4786;51.270;4.456;2024-01-11T06:04:15;-3.60;99.90
9497;DHT22;4786;51.270;4.456;2024-01-11T06:06:42;-3.60;99.90
9497;DHT22;4786;51.270;4.456;2024-01-11T06:09:08;-3.60;99.90
9497;DHT22;4786;51.270;4.456;2024-01-11T06:11:35;-3.60;99.90
9497;DHT22;4786;51.270;4.456;2024-01-11T06:14:01;-3.70;99.90
9497;DHT22;4786;51.270;4.456;2024-01-11T06:16:28;-3.70;99.90
9497;DHT22;4786;51.270;4.456;2024-01-11T06:18:53;-3.70;99.90
9497;DHT22;4786;51.270;4.456;2024-01-11T06:21:19;-3.70;99.90
9497;DHT22;4786;51.270;4.456;2024-01-11T06:23:45;-3.60;99.90
9497;DHT22;4786;51.270;4.456;2024-01-11T06:26:11;-3.60;99.90
9497;DHT22;4786;51.270;4.456;2024-01-11T06:28:37;-3.60;99.90
9497;DHT22;4786;51.270;4.456;2024-01-11T06:31:03;-3.70;99.90
9497;DHT22;4786;51.270;4.456;2024-01-11T06:33:29;-3.80;99.90
9497;DHT22;4786;51.270;4.456;2024-01-11T06:35:55;-3.70;99.90
9497;DHT22;4786;51.270;4.456;2024-01-11T06:38:22;-3.70;99.90
9497;DHT22;4786;51.270;4.456;2024-01-11T06:40:50;-3.70;99.90
9497;DHT22;4786;51.270;4.456;2024-01-11T06:43:16;-3.80;99.90
9497;DHT22;4786;51.270;4.456;2024-01-11T06:45:42;-3.80;99.90
9497;DHT22;4786;51.270;4.456;2024-01-11T06:48:08;-3.80;99.90
9497;DHT22;4786;51.270;4.456;2024-01-11T06:50:34;-3.80;99.90
9497;DHT22;4786;51.270;4.456;2024-01-11T06:53:01;-3.90;99.90
9497;DHT22;4786;51.270;4.456;2024-01-11T06:55:27;-3.90;99.90
9497;DHT22;4786;51.270;4.456;2024-01-11T06:57:53;-3.90;99.90
9497;DHT22;4786;51.270;4.456;2024-01-11T07:00:19;-3.80;99.90
9497;DHT22;4786;51.270;4.456;2024-01-11T07:02:45;-3.80;99.90
9497;DHT22;4786;51.270;4.456;2024-01-11T07:05:11;-3.90;99.90
9497;DHT22;4786;51.270;4.456;2024-01-11T07:07:37;-3.90;99.90
9497;DHT22;4786;51.270;4.456;2024-01-11T07:10:04;-4.00;99.90
9497;DHT22;4786;51.270;4.456;2024-01-11T07:12:31;-4.00;99.90
9497;DHT22;4786;51.270;4.456;2024-01-11T07:14:58;-4.00;99.90
9497;DHT22;4786;51.270;4.456;2024-01-11T07:17:24;-4.00;99.90
9497;DHT22;4786;51.270;4.456;2024-01-11T07:19:50;-4.00;99.90
9497;DHT22;4786;51.270;4.456;2024-01-11T07:22:16;-4.10;99.90
9497;DHT22;4786;51.270;4.456;2024-01-11T07:24:42;-4.10;99.90
9497;DHT22;4786;51.270;4.456;2024-01-11T07:27:08;-4.10;99.90
9497;DHT22;4786;51.270;4.456;2024-01-11T07:29:34;-4.10;99.90
9497;DHT22;4786;51.270;4.456;2024-01-11T07:32:01;-4.10;99.90
9497;DHT22;4786;51.270;4.456;2024-01-11T07:34:27;-4.10;99.90
9497;DHT22;4786;51.270;4.456;2024-01-11T07:36:53;-4.10;99.90
9497;DHT22;4786;51.270;4.456;2024-01-11T07:39:19;-4.10;99.90
9497;DHT22;4786;51.270;4.456;2024-01-11T07:41:44;-4.10;99.90
9497;DHT22;4786;51.270;4.456;2024-01-11T07:44:10;-4.20;99.90
9497;DHT22;4786;51.270;4.456;2024-01-11T07:46:36;-4.20;99.90
9497;DHT22;4786;51.270;4.456;2024-01-11T07:49:03;-4.20;99.90
9497;DHT22;4786;51.270;4.456;2024-01-11T07:51:29;-4.20;99.90
9497;DHT22;4786;51.270;4.456;2024-01-11T07:53:55;-4.30;99.90
9497;DHT22;4786;51.270;4.456;2024-01-11T07:56:20;-4.30;99.90
9497;DHT22;4786;51.270;4.456;2024-01-11T07:58:47;-4.30;99.90
9497;DHT22;4786;51.270;4.456;2024-01-11T08:01:14;-4.20;99.90
9497;DHT22;4786;51.270;4.456;2024-01-11T08:03:41;-4.30;99.90
9497;DHT22;4786;51.270;4.456;2024-01-11T08:06:07;-4.30;99.90
9497;DHT22;4786;51.270;4.456;2024-01-11T08:08:34;-4.30;99.90
9497;DHT22;4786;51.270;4.456;2024-01-11T08:10:59;-4.30;99.90
9497;DHT22;4786;51.270;4.456;2024-01-11T08:13:25;-4.20;99.90
9497;DHT22;4786;51.270;4.456;2024-01-11T08:15:51;-4.20;99.90
9497;DHT22;4786;51.270;4.456;2024-01-11T08:18:19;-4.20;99.90
9497;DHT22;4786;51.270;4.456;2024-01-11T08:20:44;-4.20;99.90
9497;DHT22;4786;51.270;4.456;2024-01-11T08:23:11;-4.20;99.90
9497;DHT22;4786;51.270;4.456;2024-01-11T08:25:37;-4.30;99.90
9497;DHT22;4786;51.270;4.456;2024-01-11T08:28:04;-3.90;99.90
9497;DHT22;4786;51.270;4.456;2024-01-11T08:30:30;-4.20;99.90
9497;DHT22;4786;51.270;4.456;2024-01-11T08:32:56;-3.80;99.90
9497;DHT22;4786;51.270;4.456;2024-01-11T08:35:21;-4.20;99.90
9497;DHT22;4786;51.270;4.456;2024-01-11T08:37:47;-4.10;99.90
9497;DHT22;4786;51.270;4.456;2024-01-11T08:40:13;-4.10;99.90
9497;DHT22;4786;51.270;4.456;2024-01-11T08:42:39;-4.10;99.90
9497;DHT22;4786;51.270;4.456;2024-01-11T08:45:06;-4.10;99.90
9497;DHT22;4786;51.270;4.456;2024-01-11T08:47:34;-4.00;99.90
9497;DHT22;4786;51.270;4.456;2024-01-11T08:50:00;-4.00;99.90
9497;DHT22;4786;51.270;4.456;2024-01-11T08:52:26;-3.90;99.90
9497;DHT22;4786;51.270;4.456;2024-01-11T08:54:52;-3.90;99.90
9497;DHT22;4786;51.270;4.456;2024-01-11T08:57:17;-3.90;99.90
9497;DHT22;4786;51.270;4.456;2024-01-11T08:59:43;-3.80;99.90
9497;DHT22;4786;51.270;4.456;2024-01-11T09:02:09;-3.70;99.90
9497;DHT22;4786;51.270;4.456;2024-01-11T09:04:36;-3.70;99.90
9497;DHT22;4786;51.270;4.456;2024-01-11T09:07:02;-3.70;99.90
9497;DHT22;4786;51.270;4.456;2024-01-11T09:09:28;-3.60;99.90
9497;DHT22;4786;51.270;4.456;2024-01-11T09:11:54;-3.50;99.90
9497;DHT22;4786;51.270;4.456;2024-01-11T09:14:19;-3.60;99.90
9497;DHT22;4786;51.270;4.456;2024-01-11T09:16:46;-3.60;99.90
9497;DHT22;4786;51.270;4.456;2024-01-11T09:19:15;-3.60;99.90
9497;DHT22;4786;51.270;4.456;2024-01-11T09:21:40;-3.60;99.90
9497;DHT22;4786;51.270;4.456;2024-01-11T09:24:07;-3.40;99.90
9497;DHT22;4786;51.270;4.456;2024-01-11T09:26:33;-3.40;99.90
9497;DHT22;4786;51.270;4.456;2024-01-11T09:28:58;-3.40;99.90
9497;DHT22;4786;51.270;4.456;2024-01-11T09:31:24;-3.30;99.90
9497;DHT22;4786;51.270;4.456;2024-01-11T09:33:50;-3.30;99.90
9497;DHT22;4786;51.270;4.456;2024-01-11T09:36:16;-3.20;99.90
9497;DHT22;4786;51.270;4.456;2024-01-11T09:38:42;-3.20;99.90
9497;DHT22;4786;51.270;4.456;2024-01-11T09:41:09;-3.20;99.90
9497;DHT22;4786;51.270;4.456;2024-01-11T09:43:36;-3.10;99.90
9497;DHT22;4786;51.270;4.456;2024-01-11T09:46:06;-3.10;99.90
9497;DHT22;4786;51.270;4.456;2024-01-11T09:48:38;-2.80;99.90
9497;DHT22;4786;51.270;4.456;2024-01-11T09:51:05;-2.90;99.90
9497;DHT22;4786;51.270;4.456;2024-01-11T09:53:33;-2.70;99.90
9497;DHT22;4786;51.270;4.456;2024-01-11T09:55:59;-2.70;99.90
9497;DHT22;4786;51.270;4.456;2024-01-11T09:58:26;-2.70;99.90
9497;DHT22;4786;51.270;4.456;2024-01-11T10:00:55;-2.60;99.90
9497;DHT22;4786;51.270;4.456;2024-01-11T10:03:25;-2.50;99.90
9497;DHT22;4786;51.270;4.456;2024-01-11T10:05:57;-2.50;99.90
9497;DHT22;4786;51.270;4.456;2024-01-11T10:08:23;-2.40;99.90
9497;DHT22;4786;51.270;4.456;2024-01-11T10:10:50;-2.40;99.90
9497;DHT22;4786;51.270;4.456;2024-01-11T10:13:16;-2.10;99.90
9497;DHT22;4786;51.270;4.456;2024-01-11T10:15:43;-2.40;99.90
9497;DHT22;4786;51.270;4.456;2024-01-11T10:18:10;-2.30;99.90
9497;DHT22;4786;51.270;4.456;2024-01-11T10:20:36;-2.20;99.90
9497;DHT22;4786;51.270;4.456;2024-01-11T10:23:03;-2.10;99.90
9497;DHT22;4786;51.270;4.456;2024-01-11T10:25:29;-2.10;99.90
9497;DHT22;4786;51.270;4.456;2024-01-11T10:27:55;-2.10;99.90
9497;DHT22;4786;51.270;4.456;2024-01-11T10:30:21;-2.00;99.90
9497;DHT22;4786;51.270;4.456;2024-01-11T10:32:49;-2.00;99.90
9497;DHT22;4786;51.270;4.456;2024-01-11T10:35:15;-1.70;99.90
9497;DHT22;4786;51.270;4.456;2024-01-11T10:37:44;-1.80;99.90
9497;DHT22;4786;51.270;4.456;2024-01-11T10:40:10;-1.80;99.90
9497;DHT22;4786;51.270;4.456;2024-01-11T10:42:44;-1.70;99.90
9497;DHT22;4786;51.270;4.456;2024-01-11T10:45:16;-1.70;99.90
9497;DHT22;4786;51.270;4.456;2024-01-11T10:47:53;-1.60;99.90
9497;DHT22;4786;51.270;4.456;2024-01-11T10:50:22;-1.60;99.90
9497;DHT22;4786;51.270;4.456;2024-01-11T10:53:06;-1.50;99.90
9497;DHT22;4786;51.270;4.456;2024-01-11T10:55:34;-1.40;99.90
9497;DHT22;4786;51.270;4.456;2024-01-11T10:58:01;-1.40;99.90
9497;DHT22;4786;51.270;4.456;2024-01-11T11:00:28;-1.30;99.90
9497;DHT22;4786;51.270;4.456;2024-01-11T11:02:55;-1.20;99.90
9497;DHT22;4786;51.270;4.456;2024-01-11T11:05:21;-1.10;99.90
9497;DHT22;4786;51.270;4.456;2024-01-11T11:07:51;-0.90;99.90
9497;DHT22;4786;51.270;4.456;2024-01-11T11:10:18;-0.90;99.90
9497;DHT22;4786;51.270;4.456;2024-01-11T11:12:45;-0.80;99.90
9497;DHT22;4786;51.270;4.456;2024-01-11T11:15:12;-0.80;99.90
9497;DHT22;4786;51.270;4.456;2024-01-11T11:17:40;-0.70;99.90
9497;DHT22;4786;51.270;4.456;2024-01-11T11:20:07;-0.60;99.90
9497;DHT22;4786;51.270;4.456;2024-01-11T11:22:34;-0.60;99.90
9497;DHT22;4786;51.270;4.456;2024-01-11T11:25:10;-0.60;99.90
9497;DHT22;4786;51.270;4.456;2024-01-11T11:27:37;-0.50;99.90
9497;DHT22;4786;51.270;4.456;2024-01-11T11:30:03;-0.10;99.90
9497;DHT22;4786;51.270;4.456;2024-01-11T11:32:37;-0.40;99.90
9497;DHT22;4786;51.270;4.456;2024-01-11T11:35:04;-0.20;99.90
9497;DHT22;4786;51.270;4.456;2024-01-11T11:37:31;-0.10;99.90
9497;DHT22;4786;51.270;4.456;2024-01-11T11:39:59;-0.10;99.90
9497;DHT22;4786;51.270;4.456;2024-01-11T11:42:25;0.10;99.90
9497;DHT22;4786;51.270;4.456;2024-01-11T11:44:52;0.20;99.90
9497;DHT22;4786;51.270;4.456;2024-01-11T11:47:22;0.40;99.90
9497;DHT22;4786;51.270;4.456;2024-01-11T11:50:10;0.40;99.90
9497;DHT22;4786;51.270;4.456;2024-01-11T11:52:37;0.50;99.90
9497;DHT22;4786;51.270;4.456;2024-01-11T11:55:06;0.60;99.90
9497;DHT22;4786;51.270;4.456;2024-01-11T11:57:33;0.60;99.90
9497;DHT22;4786;51.270;4.456;2024-01-11T11:59:59;0.50;99.90
9497;DHT22;4786;51.270;4.456;2024-01-11T12:02:26;0.70;99.90
9497;DHT22;4786;51.270;4.456;2024-01-11T12:04:53;0.70;99.90
9497;DHT22;4786;51.270;4.456;2024-01-11T12:07:20;0.90;99.90
9497;DHT22;4786;51.270;4.456;2024-01-11T12:09:47;0.90;99.90
9497;DHT22;4786;51.270;4.456;2024-01-11T12:12:13;0.90;99.90
9497;DHT22;4786;51.270;4.456;2024-01-11T12:14:41;1.00;99.90
9497;DHT22;4786;51.270;4.456;2024-01-11T12:17:07;1.00;99.90
9497;DHT22;4786;51.270;4.456;2024-01-11T12:19:33;1.10;99.90
9497;DHT22;4786;51.270;4.456;2024-01-11T12:21:59;1.00;99.90
9497;DHT22;4786;51.270;4.456;2024-01-11T12:24:25;1.30;99.90
9497;DHT22;4786;51.270;4.456;2024-01-11T12:26:52;1.00;99.90
9497;DHT22;4786;51.270;4.456;2024-01-11T12:29:19;1.00;99.90
9497;DHT22;4786;51.270;4.456;2024-01-11T12:31:46;1.10;99.90
9497;DHT22;4786;51.270;4.456;2024-01-11T12:34:12;1.30;99.90
9497;DHT22;4786;51.270;4.456;2024-01-11T12:36:38;1.30;99.90
9497;DHT22;4786;51.270;4.456;2024-01-11T12:39:04;1.30;99.90
9497;DHT22;4786;51.270;4.456;2024-01-11T12:41:32;1.30;99.90
9497;DHT22;4786;51.270;4.456;2024-01-11T12:43:58;1.40;99.90
9497;DHT22;4786;51.270;4.456;2024-01-11T12:46:25;1.60;99.90
9497;DHT22;4786;51.270;4.456;2024-01-11T12:48:51;1.50;99.90
9497;DHT22;4786;51.270;4.456;2024-01-11T12:51:18;1.50;99.90
9497;DHT22;4786;51.270;4.456;2024-01-11T12:53:47;1.70;99.90
9497;DHT22;4786;51.270;4.456;2024-01-11T12:56:17;1.50;99.90
9497;DHT22;4786;51.270;4.456;2024-01-11T12:58:43;1.50;99.90
9497;DHT22;4786;51.270;4.456;2024-01-11T13:01:11;1.50;99.90
9497;DHT22;4786;51.270;4.456;2024-01-11T13:03:44;1.50;99.90
9497;DHT22;4786;51.270;4.456;2024-01-11T13:06:11;1.60;99.90
9497;DHT22;4786;51.270;4.456;2024-01-11T13:08:37;1.70;99.90
9497;DHT22;4786;51.270;4.456;2024-01-11T13:11:07;1.60;99.90
9497;DHT22;4786;51.270;4.456;2024-01-11T13:13:34;1.60;99.90
9497;DHT22;4786;51.270;4.456;2024-01-11T13:16:03;1.70;99.90
9497;DHT22;4786;51.270;4.456;2024-01-11T13:18:33;1.60;99.90
9497;DHT22;4786;51.270;4.456;2024-01-11T13:20:59;1.40;99.90
9497;DHT22;4786;51.270;4.456;2024-01-11T13:23:25;1.40;99.90
9497;DHT22;4786;51.270;4.456;2024-01-11T13:25:51;1.60;99.90
9497;DHT22;4786;51.270;4.456;2024-01-11T13:28:17;1.60;99.90
9497;DHT22;4786;51.270;4.456;2024-01-11T13:30:45;1.60;99.90
9497;DHT22;4786;51.270;4.456;2024-01-11T13:33:11;1.70;99.90
9497;DHT22;4786;51.270;4.456;2024-01-11T13:35:38;1.70;99.90
9497;DHT22;4786;51.270;4.456;2024-01-11T13:38:05;1.90;99.90
9497;DHT22;4786;51.270;4.456;2024-01-11T13:40:31;1.60;99.90
9497;DHT22;4786;51.270;4.456;2024-01-11T13:42:58;1.70;99.90
9497;DHT22;4786;51.270;4.456;2024-01-11T13:45:25;1.60;99.90
9497;DHT22;4786;51.270;4.456;2024-01-11T13:47:52;1.60;99.90
9497;DHT22;4786;51.270;4.456;2024-01-11T13:50:21;1.60;99.90
9497;DHT22;4786;51.270;4.456;2024-01-11T13:52:49;1.60;99.90
9497;DHT22;4786;51.270;4.456;2024-01-11T13:55:16;1.40;99.90
9497;DHT22;4786;51.270;4.456;2024-01-11T13:57:43;1.40;99.90
9497;DHT22;4786;51.270;4.456;2024-01-11T14:00:10;1.60;99.90
9497;DHT22;4786;51.270;4.456;2024-01-11T14:02:40;1.40;99.90
9497;DHT22;4786;51.270;4.456;2024-01-11T14:05:11;1.30;99.90
9497;DHT22;4786;51.270;4.456;2024-01-11T14:07:40;1.60;99.90
9497;DHT22;4786;51.270;4.456;2024-01-11T14:10:07;1.50;99.90
9497;DHT22;4786;51.270;4.456;2024-01-11T14:12:34;1.40;99.90
9497;DHT22;4786;51.270;4.456;2024-01-11T14:15:05;1.30;99.90
9497;DHT22;4786;51.270;4.456;2024-01-11T14:17:34;1.30;99.90
9497;DHT22;4786;51.270;4.456;2024-01-11T14:20:01;1.20;99.90
9497;DHT22;4786;51.270;4.456;2024-01-11T14:22:26;1.00;99.90
9497;DHT22;4786;51.270;4.456;2024-01-11T14:24:52;1.00;99.90
9497;DHT22;4786;51.270;4.456;2024-01-11T14:27:20;0.90;99.90
9497;DHT22;4786;51.270;4.456;2024-01-11T14:29:46;1.00;99.90
9497;DHT22;4786;51.270;4.456;2024-01-11T14:32:12;1.00;99.90
9497;DHT22;4786;51.270;4.456;2024-01-11T14:34:42;1.00;99.90
9497;DHT22;4786;51.270;4.456;2024-01-11T14:37:08;1.10;99.90
9497;DHT22;4786;51.270;4.456;2024-01-11T14:39:34;1.00;99.90
9497;DHT22;4786;51.270;4.456;2024-01-11T14:42:00;1.10;99.90
9497;DHT22;4786;51.270;4.456;2024-01-11T14:44:25;1.00;99.90
9497;DHT22;4786;51.270;4.456;2024-01-11T14:46:51;1.00;99.90
9497;DHT22;4786;51.270;4.456;2024-01-11T14:49:17;1.10;99.90
9497;DHT22;4786;51.270;4.456;2024-01-11T14:51:43;1.10;99.90
9497;DHT22;4786;51.270;4.456;2024-01-11T14:54:08;1.10;99.90
9497;DHT22;4786;51.270;4.456;2024-01-11T14:56:34;1.10;99.90
9497;DHT22;4786;51.270;4.456;2024-01-11T14:59:01;1.10;99.90
9497;DHT22;4786;51.270;4.456;2024-01-11T15:01:27;1.30;99.90
9497;DHT22;4786;51.270;4.456;2024-01-11T15:03:53;1.10;99.90
9497;DHT22;4786;51.270;4.456;2024-01-11T15:06:19;1.10;99.90
9497;DHT22;4786;51.270;4.456;2024-01-11T15:08:45;1.10;99.90
9497;DHT22;4786;51.270;4.456;2024-01-11T15:11:11;1.20;99.90
9497;DHT22;4786;51.270;4.456;2024-01-11T15:13:38;1.30;99.90
9497;DHT22;4786;51.270;4.456;2024-01-11T15:16:03;1.30;99.90
9497;DHT22;4786;51.270;4.456;2024-01-11T15:18:29;1.30;99.90
9497;DHT22;4786;51.270;4.456;2024-01-11T15:20:55;1.30;99.90
9497;DHT22;4786;51.270;4.456;2024-01-11T15:23:20;1.30;99.90
9497;DHT22;4786;51.270;4.456;2024-01-11T15:25:47;1.30;99.90
9497;DHT22;4786;51.270;4.456;2024-01-11T15:28:13;1.20;99.90
9497;DHT22;4786;51.270;4.456;2024-01-11T15:30:38;1.20;99.90
9497;DHT22;4786;51.270;4.456;2024-01-11T15:33:04;1.30;99.90
9497;DHT22;4786;51.270;4.456;2024-01-11T15:35:30;1.30;99.90
9497;DHT22;4786;51.270;4.456;2024-01-11T15:37:55;1.30;99.90
9497;DHT22;4786;51.270;4.456;2024-01-11T15:40:22;1.30;99.90
9497;DHT22;4786;51.270;4.456;2024-01-11T15:42:48;1.30;99.90
9497;DHT22;4786;51.270;4.456;2024-01-11T15:45:14;1.60;99.90
9497;DHT22;4786;51.270;4.456;2024-01-11T15:47:40;1.30;99.90
9497;DHT22;4786;51.270;4.456;2024-01-11T15:50:07;1.30;99.90
9497;DHT22;4786;51.270;4.456;2024-01-11T15:52:35;1.40;99.90
9497;DHT22;4786;51.270;4.456;2024-01-11T15:55:01;1.40;99.90
9497;DHT22;4786;51.270;4.456;2024-01-11T15:57:29;1.40;99.90
9497;DHT22;4786;51.270;4.456;2024-01-11T15:59:55;1.60;99.90
9497;DHT22;4786;51.270;4.456;2024-01-11T16:02:21;1.40;99.90